Time;durP1;ratioP1;P1;durP2;ratioP2;P2;SDS_P1;SDS_P2;PMS_P1;PMS_P2;Temp;Humidity;BMP_temperature;BMP_pressure;BME280_temperature;BME280_humidity;BME280_pressure;Samples;Min_cycle;Max_cycle;Signal;HPM_P1;HPM_P2
2022/09/13 00:00:10;;;;;;;9.10;6.28;;;;;;;;;;5053906;28;20025;-66
2022/09/13 00:02:36;;;;;;;11.23;6.95;;;;;;;;;;5053356;28;20040;-64
2022/09/13 00:05:01;;;;;;;10.85;7.20;;;;;;;;;;5053617;28;20021;-66
2022/09/13 00:07:27;;;;;;;12.02;7.70;;;;;;;;;;5053889;28;20051;-67
2022/09/13 00:09:52;;;;;;;9.43;6.80;;;;;;;;;;5053858;28;20019;-67
2022/09/13 00:12:18;;;;;;;10.93;7.15;;;;;;;;;;5035331;28;20361;-62
2022/09/13 00:14:43;;;;;;;10.88;6.88;;;;;;;;;;5053165;28;20519;-63
2022/09/13 00:17:08;;;;;;;8.88;6.35;;;;;;;;;;5054723;28;20025;-62
2022/09/13 00:19:34;;;;;;;5.55;5.00;;;;;;;;;;5039372;28;20044;-62
2022/09/13 00:21:59;;;;;;;7.25;5.63;;;;;;;;;;5057365;28;20595;-62
2022/09/13 00:24:25;;;;;;;4.53;4.13;;;;;;;;;;5039029;28;20029;-63
2022/09/13 00:26:50;;;;;;;5.03;4.63;;;;;;;;;;5056876;28;20044;-62
2022/09/13 00:29:15;;;;;;;5.60;4.72;;;;;;;;;;5057039;28;20017;-62
2022/09/13 00:31:41;;;;;;;5.80;5.15;;;;;;;;;;5057086;28;20079;-62
2022/09/13 00:34:06;;;;;;;5.20;4.53;;;;;;;;;;5056854;28;20465;-62
2022/09/13 00:36:32;;;;;;;4.25;3.92;;;;;;;;;;5056388;28;20036;-62
2022/09/13 00:38:58;;;;;;;5.32;4.80;;;;;;;;;;5056763;28;20021;-62
2022/09/13 00:41:24;;;;;;;6.32;4.80;;;;;;;;;;5056633;28;20029;-62
2022/09/13 00:43:51;;;;;;;5.07;4.38;;;;;;;;;;5057270;28;20346;-62
2022/09/13 00:46:20;;;;;;;4.45;4.07;;;;;;;;;;5056504;28;20603;-63
2022/09/13 00:48:46;;;;;;;5.15;4.20;;;;;;;;;;5056749;28;20021;-62
2022/09/13 00:51:12;;;;;;;7.90;4.43;;;;;;;;;;5056551;28;20017;-62
2022/09/13 00:53:40;;;;;;;5.90;4.53;;;;;;;;;;5056714;28;20021;-62
2022/09/13 00:56:10;;;;;;;5.70;4.68;;;;;;;;;;5056815;28;20028;-62
2022/09/13 00:58:38;;;;;;;4.95;4.45;;;;;;;;;;5056575;28;20017;-62
2022/09/13 01:01:06;;;;;;;5.30;4.40;;;;;;;;;;5056584;28;20162;-62
2022/09/13 01:03:33;;;;;;;5.15;4.65;;;;;;;;;;5056817;28;20017;-63
2022/09/13 01:06:00;;;;;;;5.95;5.07;;;;;;;;;;5056389;28;20025;-62
2022/09/13 01:08:28;;;;;;;7.75;5.13;;;;;;;;;;5056572;28;20019;-63
2022/09/13 01:10:55;;;;;;;7.57;5.32;;;;;;;;;;5056514;28;20108;-63
2022/09/13 01:13:31;;;;;;;7.30;4.93;;;;;;;;;;5056540;28;20023;-62
2022/09/13 01:15:57;;;;;;;8.48;4.65;;;;;;;;;;5056498;28;20129;-63
2022/09/13 01:18:23;;;;;;;5.78;3.90;;;;;;;;;;5038040;28;20025;-62
2022/09/13 01:20:48;;;;;;;5.85;4.15;;;;;;;;;;5056070;28;20091;-63
2022/09/13 01:23:19;;;;;;;4.32;3.92;;;;;;;;;;5056223;28;20360;-62
2022/09/13 01:25:45;;;;;;;4.88;4.35;;;;;;;;;;5056014;28;20457;-62
2022/09/13 01:28:22;;;;;;;6.47;4.45;;;;;;;;;;5056193;28;20029;-62
2022/09/13 01:30:48;;;;;;;4.47;4.03;;;;;;;;;;5056028;28;20017;-63
2022/09/13 01:33:25;;;;;;;6.13;4.35;;;;;;;;;;5055662;28;20013;-62
2022/09/13 01:36:03;;;;;;;8.88;5.05;;;;;;;;;;5055973;28;20094;-62
2022/09/13 01:38:32;;;;;;;8.82;4.93;;;;;;;;;;5055912;28;20104;-62
2022/09/13 01:41:05;;;;;;;6.90;4.95;;;;;;;;;;5055986;28;20025;-63
2022/09/13 01:43:49;;;;;;;5.20;4.70;;;;;;;;;;5055575;28;20120;-62
2022/09/13 01:46:20;;;;;;;7.38;5.68;;;;;;;;;;5055819;28;20112;-63
2022/09/13 01:48:46;;;;;;;5.30;4.80;;;;;;;;;;5055307;28;20029;-62
2022/09/13 01:51:17;;;;;;;7.00;4.82;;;;;;;;;;5055593;28;20023;-66
2022/09/13 01:54:01;;;;;;;5.50;4.40;;;;;;;;;;5055270;28;20027;-66
2022/09/13 01:56:37;;;;;;;5.30;4.32;;;;;;;;;;5055780;28;20037;-66
2022/09/13 01:59:06;;;;;;;6.82;4.80;;;;;;;;;;5055489;28;20121;-66
2022/09/13 02:01:32;;;;;;;5.13;4.53;;;;;;;;;;5055373;28;20031;-66
2022/09/13 02:04:17;;;;;;;6.45;4.95;;;;;;;;;;5055059;28;20457;-66
2022/09/13 02:06:45;;;;;;;5.80;4.70;;;;;;;;;;5054665;28;20084;-66
2022/09/13 02:09:14;;;;;;;4.75;4.25;;;;;;;;;;5054925;28;20044;-62
2022/09/13 02:11:41;;;;;;;5.05;4.55;;;;;;;;;;5055362;28;20029;-62
2022/09/13 02:14:11;;;;;;;5.68;5.13;;;;;;;;;;5055515;28;20055;-62
2022/09/13 02:16:41;;;;;;;5.00;4.50;;;;;;;;;;5054808;28;20025;-62
2022/09/13 02:19:06;;;;;;;;;;;;;;;;;;5037250;28;20055;-62
2022/09/13 02:21:34;;;;;;;4.95;4.43;;;;;;;;;;5054722;28;20348;-62
2022/09/13 02:24:02;;;;;;;4.00;3.70;;;;;;;;;;5037200;28;20028;-62
2022/09/13 02:26:29;;;;;;;4.47;4.07;;;;;;;;;;5054836;28;20093;-62
2022/09/13 02:28:56;;;;;;;4.60;4.28;;;;;;;;;;5061928;22;20136;-62
2022/09/13 02:31:25;;;;;;;4.30;4.00;;;;;;;;;;5034871;28;20025;-62
2022/09/13 02:33:53;;;;;;;4.40;4.10;;;;;;;;;;5034585;28;20024;-62
2022/09/13 02:36:23;;;;;;;4.22;3.90;;;;;;;;;;5034708;28;20029;-62
2022/09/13 02:38:51;;;;;;;4.53;4.20;;;;;;;;;;5034681;28;20075;-62
2022/09/13 02:41:24;;;;;;;3.88;3.58;;;;;;;;;;5034074;28;20033;-62
2022/09/13 02:43:51;;;;;;;3.67;3.40;;;;;;;;;;5034848;28;20043;-62
2022/09/13 02:46:25;;;;;;;3.72;3.53;;;;;;;;;;5049772;28;20071;-62
2022/09/13 02:49:15;;;;;;;4.32;3.78;;;;;;;;;;5034271;28;20049;-62
2022/09/13 02:51:53;;;;;;;4.20;3.92;;;;;;;;;;4981006;28;20087;-62
2022/09/13 02:54:45;;;;;;;4.40;4.10;;;;;;;;;;5034331;28;20030;-62
2022/09/13 02:57:17;;;;;;;4.40;4.10;;;;;;;;;;5031634;28;20047;-62
2022/09/13 02:59:44;;;;;;;4.38;3.97;;;;;;;;;;5034300;28;20104;-62
2022/09/13 03:02:13;;;;;;;4.40;4.05;;;;;;;;;;5033830;28;20064;-62
2022/09/13 03:04:38;;;;;;;4.38;4.07;;;;;;;;;;5034159;28;20029;-62
2022/09/13 03:07:08;;;;;;;4.50;4.20;;;;;;;;;;5034125;28;20109;-62
2022/09/13 03:09:34;;;;;;;4.18;3.83;;;;;;;;;;5033917;28;20057;-62
2022/09/13 03:12:08;;;;;;;4.65;4.28;;;;;;;;;;5033138;28;20056;-62
2022/09/13 03:14:55;;;;;;;4.20;3.85;;;;;;;;;;5033998;28;20033;-62
2022/09/13 03:17:50;;;;;;;4.65;4.20;;;;;;;;;;5035408;28;20033;-61
2022/09/13 03:20:18;;;;;;;3.90;3.70;;;;;;;;;;4983485;28;20043;-61
2022/09/13 03:22:59;;;;;;;4.13;3.83;;;;;;;;;;5035125;28;20362;-62
2022/09/13 03:25:24;;;;;;;4.30;4.00;;;;;;;;;;5034308;28;20385;-62
2022/09/13 03:28:08;;;;;;;5.10;4.60;;;;;;;;;;5033576;28;20022;-62
2022/09/13 03:30:36;;;;;;;5.53;5.05;;;;;;;;;;5033485;28;20041;-61
2022/09/13 03:33:27;;;;;;;6.15;5.45;;;;;;;;;;5033967;28;20056;-61
2022/09/13 03:36:13;;;;;;;5.80;5.30;;;;;;;;;;5033513;28;20409;-62
2022/09/13 03:38:42;;;;;;;5.65;5.13;;;;;;;;;;5033412;28;20454;-61
2022/09/13 03:41:18;;;;;;;6.00;5.25;;;;;;;;;;5033610;28;20021;-62
2022/09/13 03:43:47;;;;;;;5.68;5.07;;;;;;;;;;5033543;28;20038;-61
2022/09/13 03:46:24;;;;;;;6.07;5.47;;;;;;;;;;5033397;28;20026;-62
2022/09/13 03:48:50;;;;;;;7.20;5.47;;;;;;;;;;5033672;28;20381;-62
2022/09/13 03:51:15;;;;;;;5.45;4.95;;;;;;;;;;5032065;28;20021;-61
2022/09/13 03:53:50;;;;;;;6.15;5.57;;;;;;;;;;5037596;28;20040;-61
2022/09/13 03:56:17;;;;;;;5.97;5.38;;;;;;;;;;5037979;28;20037;-61
2022/09/13 03:58:43;;;;;;;7.90;6.32;;;;;;;;;;5037883;28;20060;-62
2022/09/13 04:01:11;;;;;;;6.65;5.95;;;;;;;;;;5036565;28;20041;-62
2022/09/13 04:03:37;;;;;;;6.85;6.07;;;;;;;;;;5037731;28;20054;-62
2022/09/13 04:06:03;;;;;;;10.23;6.75;;;;;;;;;;5036162;28;20037;-62
2022/09/13 04:08:29;;;;;;;6.50;5.82;;;;;;;;;;5037843;28;20041;-61
2022/09/13 04:10:55;;;;;;;6.90;5.97;;;;;;;;;;5036532;28;20025;-62
2022/09/13 04:13:21;;;;;;;7.13;6.05;;;;;;;;;;5035302;28;20021;-62
2022/09/13 04:15:48;;;;;;;5.82;5.25;;;;;;;;;;5036621;28;20030;-62
2022/09/13 04:18:13;;;;;;;5.50;5.00;;;;;;;;;;5036026;28;20078;-62
2022/09/13 04:20:39;;;;;;;5.45;4.97;;;;;;;;;;5036729;28;20037;-62
2022/09/13 04:23:04;;;;;;;5.40;4.90;;;;;;;;;;5036786;28;20037;-61
2022/09/13 04:25:30;;;;;;;5.68;5.07;;;;;;;;;;5036509;28;20029;-62
2022/09/13 04:27:58;;;;;;;5.65;5.03;;;;;;;;;;5036542;28;20504;-62
2022/09/13 04:30:24;;;;;;;5.55;5.03;;;;;;;;;;5035238;28;20560;-62
2022/09/13 04:32:49;;;;;;;6.25;5.68;;;;;;;;;;5036647;28;20034;-62
2022/09/13 04:35:16;;;;;;;6.90;6.20;;;;;;;;;;5035000;28;20362;-62
2022/09/13 04:37:43;;;;;;;6.20;5.57;;;;;;;;;;5036129;28;20473;-62
2022/09/13 04:40:08;;;;;;;7.22;5.95;;;;;;;;;;5036421;28;20026;-62
2022/09/13 04:42:34;;;;;;;7.68;6.03;;;;;;;;;;5035267;28;20468;-61
2022/09/13 04:45:00;;;;;;;6.55;5.95;;;;;;;;;;5034613;28;20076;-62
2022/09/13 04:47:25;;;;;;;7.75;6.22;;;;;;;;;;5033380;28;20017;-62
2022/09/13 04:49:50;;;;;;;7.55;6.18;;;;;;;;;;5035011;28;20470;-63
2022/09/13 04:52:16;;;;;;;7.40;6.20;;;;;;;;;;5035131;28;20613;-61
2022/09/13 04:54:41;;;;;;;6.45;5.72;;;;;;;;;;5035523;28;20028;-65
2022/09/13 04:57:07;;;;;;;6.05;5.28;;;;;;;;;;5048871;28;20017;-65
2022/09/13 04:59:32;;;;;;;5.95;5.40;;;;;;;;;;5034556;28;20523;-66
2022/09/13 05:01:58;;;;;;;5.97;5.47;;;;;;;;;;5036150;28;20432;-66
2022/09/13 05:04:23;;;;;;;6.40;5.80;;;;;;;;;;5034519;28;20133;-61
2022/09/13 05:06:49;;;;;;;6.78;5.90;;;;;;;;;;5033382;28;20022;-62
2022/09/13 05:09:14;;;;;;;6.63;5.97;;;;;;;;;;5035605;28;20038;-61
2022/09/13 05:11:40;;;;;;;6.60;5.95;;;;;;;;;;5035976;28;20100;-61
2022/09/13 05:14:06;;;;;;;6.90;5.95;;;;;;;;;;5035545;28;20117;-61
2022/09/13 05:16:32;;;;;;;8.23;6.47;;;;;;;;;;5034563;28;20054;-61
2022/09/13 05:18:57;;;;;;;8.07;6.82;;;;;;;;;;5034199;28;20064;-61
2022/09/13 05:21:23;;;;;;;8.13;7.32;;;;;;;;;;5035660;28;20101;-61
2022/09/13 05:23:49;;;;;;;8.73;7.63;;;;;;;;;;5034726;28;20032;-61
2022/09/13 05:26:15;;;;;;;8.15;7.25;;;;;;;;;;5034434;28;20070;-61
2022/09/13 05:28:40;;;;;;;9.85;7.85;;;;;;;;;;5034336;28;20041;-61
2022/09/13 05:31:07;;;;;;;8.90;7.45;;;;;;;;;;5035448;28;20026;-61
2022/09/13 05:33:34;;;;;;;8.27;7.45;;;;;;;;;;5036036;28;20022;-61
2022/09/13 05:36:00;;;;;;;10.32;8.07;;;;;;;;;;5036269;28;20030;-61
2022/09/13 05:38:26;;;;;;;8.70;7.78;;;;;;;;;;5035953;28;20479;-61
2022/09/13 05:40:57;;;;;;;9.27;8.30;;;;;;;;;;5035339;28;20080;-61
2022/09/13 05:43:23;;;;;;;10.63;9.23;;;;;;;;;;5035495;28;20300;-61
2022/09/13 05:45:49;;;;;;;10.85;8.60;;;;;;;;;;5033984;28;20467;-61
2022/09/13 05:48:14;;;;;;;9.48;7.82;;;;;;;;;;5033495;28;20033;-61
2022/09/13 05:50:39;;;;;;;9.77;8.48;;;;;;;;;;5033807;28;20018;-61
2022/09/13 05:53:05;;;;;;;11.27;8.98;;;;;;;;;;5034810;28;20116;-61
2022/09/13 05:55:31;;;;;;;9.32;8.20;;;;;;;;;;5034768;28;20025;-61
2022/09/13 05:57:57;;;;;;;12.52;9.27;;;;;;;;;;5034973;28;20041;-61
2022/09/13 06:00:22;;;;;;;12.45;9.45;;;;;;;;;;5035021;28;20075;-61
2022/09/13 06:02:48;;;;;;;13.02;8.73;;;;;;;;;;5034961;28;20026;-64
2022/09/13 06:05:13;;;;;;;10.35;8.82;;;;;;;;;;5033446;28;20067;-65
2022/09/13 06:07:40;;;;;;;12.02;9.50;;;;;;;;;;5033594;28;20082;-66
2022/09/13 06:10:06;;;;;;;13.68;9.98;;;;;;;;;;5036905;28;20441;-66
2022/09/13 06:12:31;;;;;;;11.57;8.65;;;;;;;;;;5035881;28;20029;-65
2022/09/13 06:14:57;;;;;;;12.15;9.30;;;;;;;;;;5033789;28;20024;-65
2022/09/13 06:17:22;;;;;;;13.02;9.48;;;;;;;;;;5034590;28;20034;-66
2022/09/13 06:19:47;;;;;;;14.93;10.32;;;;;;;;;;5034784;28;20022;-66
2022/09/13 06:22:13;;;;;;;15.95;10.48;;;;;;;;;;5034797;28;20042;-66
2022/09/13 06:24:38;;;;;;;14.88;10.98;;;;;;;;;;5035114;28;20021;-65
2022/09/13 06:27:03;;;;;;;17.25;11.38;;;;;;;;;;5034983;28;20116;-65
2022/09/13 06:29:29;;;;;;;14.73;10.80;;;;;;;;;;5034655;28;20042;-65
2022/09/13 06:31:54;;;;;;;17.40;11.23;;;;;;;;;;5034935;28;20168;-65
2022/09/13 06:34:20;;;;;;;14.90;11.13;;;;;;;;;;5035195;28;20018;-65
2022/09/13 06:36:45;;;;;;;15.15;11.10;;;;;;;;;;5034532;28;20488;-65
2022/09/13 06:39:11;;;;;;;16.63;11.88;;;;;;;;;;5069645;22;20045;-61
2022/09/13 06:41:36;;;;;;;17.90;12.15;;;;;;;;;;5056850;28;20024;-61
2022/09/13 06:44:02;;;;;;;17.85;11.98;;;;;;;;;;5074325;28;20012;-61
2022/09/13 06:46:29;;;;;;;15.82;11.73;;;;;;;;;;5074550;28;20086;-61
2022/09/13 06:48:54;;;;;;;19.10;12.07;;;;;;;;;;5074713;28;20031;-61
2022/09/13 06:51:21;;;;;;;18.10;12.45;;;;;;;;;;5074237;28;20025;-61
2022/09/13 06:53:47;;;;;;;19.48;12.60;;;;;;;;;;5074134;28;20020;-61
2022/09/13 06:56:17;;;;;;;20.08;13.00;;;;;;;;;;5074371;28;20158;-61
2022/09/13 06:58:44;;;;;;;19.95;13.30;;;;;;;;;;5074382;28;20039;-61
2022/09/13 07:01:14;;;;;;;20.00;13.40;;;;;;;;;;5074041;28;20025;-61
2022/09/13 07:03:40;;;;;;;20.42;12.68;;;;;;;;;;5074325;28;20036;-61
2022/09/13 07:06:06;;;;;;;20.30;13.43;;;;;;;;;;5074255;28;20029;-61
2022/09/13 07:08:33;;;;;;;18.05;12.93;;;;;;;;;;5056064;28;20032;-61
2022/09/13 07:10:58;;;;;;;22.63;14.20;;;;;;;;;;5073922;28;20012;-61
2022/09/13 07:13:24;;;;;;;20.60;14.13;;;;;;;;;;5078443;22;20048;-64
2022/09/13 07:15:50;;;;;;;22.15;13.93;;;;;;;;;;5054336;28;20087;-65
2022/09/13 07:18:15;;;;;;;19.88;13.48;;;;;;;;;;5054062;28;20021;-65
2022/09/13 07:20:40;;;;;;;13.95;9.38;;;;;;;;;;5053739;28;20028;-65
2022/09/13 07:23:05;;;;;;;16.10;11.27;;;;;;;;;;5036242;28;20061;-65
2022/09/13 07:25:31;;;;;;;22.23;13.15;;;;;;;;;;5053513;28;20033;-65
2022/09/13 07:27:56;;;;;;;18.92;12.70;;;;;;;;;;5054130;28;20025;-65
2022/09/13 07:30:21;;;;;;;14.40;9.68;;;;;;;;;;5035737;28;20468;-65
2022/09/13 07:32:47;;;;;;;16.48;11.52;;;;;;;;;;5053585;28;20060;-65
2022/09/13 07:35:12;;;;;;;14.48;10.75;;;;;;;;;;5035796;28;20477;-65
2022/09/13 07:37:37;;;;;;;16.70;10.70;;;;;;;;;;5053835;28;20056;-65
2022/09/13 07:40:03;;;;;;;14.90;10.88;;;;;;;;;;5035795;28;20031;-65
2022/09/13 07:42:28;;;;;;;12.65;8.95;;;;;;;;;;5053459;28;20024;-65
2022/09/13 07:44:54;;;;;;;12.50;10.13;;;;;;;;;;5053971;28;20036;-65
2022/09/13 07:47:19;;;;;;;14.48;10.80;;;;;;;;;;5035879;28;20472;-65
2022/09/13 07:49:45;;;;;;;18.00;10.93;;;;;;;;;;5053368;28;20037;-65
2022/09/13 07:52:11;;;;;;;12.35;9.65;;;;;;;;;;5053924;28;20006;-65
2022/09/13 07:54:37;;;;;;;11.52;9.27;;;;;;;;;;5053342;28;20479;-65
2022/09/13 07:57:02;;;;;;;15.57;10.65;;;;;;;;;;5053636;28;20013;-64
2022/09/13 07:59:28;;;;;;;12.80;9.75;;;;;;;;;;5053586;28;20033;-65
2022/09/13 08:01:53;;;;;;;12.35;9.48;;;;;;;;;;5053579;28;20056;-65
2022/09/13 08:04:20;;;;;;;11.85;9.20;;;;;;;;;;5053490;28;20036;-65
2022/09/13 08:06:45;;;;;;;11.13;8.38;;;;;;;;;;5053524;28;20032;-65
2022/09/13 08:09:11;;;;;;;9.20;6.88;;;;;;;;;;5053159;28;20025;-65
2022/09/13 08:11:40;;;;;;;9.00;6.15;;;;;;;;;;5035309;28;20383;-64
2022/09/13 08:14:07;;;;;;;7.68;6.18;;;;;;;;;;5035210;28;20076;-65
2022/09/13 08:16:33;;;;;;;7.78;6.05;;;;;;;;;;5053475;28;20075;-65
2022/09/13 08:18:59;;;;;;;10.20;6.78;;;;;;;;;;5053148;28;20447;-64
2022/09/13 08:21:26;;;;;;;5.68;5.13;;;;;;;;;;5053369;28;20076;-64
2022/09/13 08:23:55;;;;;;;6.82;6.00;;;;;;;;;;5053338;28;20465;-65
2022/09/13 08:26:21;;;;;;;11.27;6.60;;;;;;;;;;5053355;28;20104;-65
2022/09/13 08:28:46;;;;;;;8.13;6.32;;;;;;;;;;5035080;28;20537;-61
2022/09/13 08:31:14;;;;;;;8.77;5.95;;;;;;;;;;5053591;28;20056;-61
2022/09/13 08:33:42;;;;;;;7.18;4.57;;;;;;;;;;5052973;28;20457;-61
2022/09/13 08:36:08;;;;;;;8.93;5.78;;;;;;;;;;5052967;28;20082;-61
2022/09/13 08:38:33;;;;;;;7.05;5.78;;;;;;;;;;5053628;28;20379;-61
2022/09/13 08:41:01;;;;;;;8.25;5.60;;;;;;;;;;5057241;28;20111;-61
2022/09/13 08:44:05;;;;;;;7.57;5.35;;;;;;;;;;5056648;28;20522;-61
2022/09/13 08:46:35;;;;;;;5.47;4.65;;;;;;;;;;4995372;28;20070;-61
2022/09/13 08:49:04;;;;;;;6.18;4.88;;;;;;;;;;4995476;28;20494;-65
2022/09/13 08:51:39;;;;;;;7.05;4.28;;;;;;;;;;5028119;28;20059;-61
2022/09/13 08:54:05;;;;;;;5.55;4.93;;;;;;;;;;5057037;28;20025;-61
2022/09/13 08:56:40;;;;;;;6.35;4.72;;;;;;;;;;5056697;28;20342;-61
2022/09/13 08:59:17;;;;;;;6.50;4.53;;;;;;;;;;5056632;28;20044;-61
2022/09/13 09:01:49;;;;;;;5.72;4.30;;;;;;;;;;5056163;28;20044;-61
2022/09/13 09:04:18;;;;;;;5.43;4.07;;;;;;;;;;5056554;28;20499;-61
2022/09/13 09:06:43;;;;;;;4.55;3.97;;;;;;;;;;5055072;28;20029;-61
2022/09/13 09:09:16;;;;;;;5.40;4.03;;;;;;;;;;5056117;28;20487;-61
2022/09/13 09:12:07;;;;;;;5.97;4.55;;;;;;;;;;5056722;28;20465;-61
2022/09/13 09:14:36;;;;;;;5.10;3.70;;;;;;;;;;5055980;28;20040;-61
2022/09/13 09:17:03;;;;;;;4.45;3.55;;;;;;;;;;5038553;28;20025;-61
2022/09/13 09:19:39;;;;;;;5.15;4.20;;;;;;;;;;5038436;28;20481;-61
2022/09/13 09:22:06;;;;;;;4.43;4.05;;;;;;;;;;5056212;28;20033;-61
2022/09/13 09:24:35;;;;;;;5.85;3.88;;;;;;;;;;5056211;28;20021;-61
2022/09/13 09:27:01;;;;;;;6.90;3.83;;;;;;;;;;5055861;28;20040;-61
2022/09/13 09:29:28;;;;;;;4.30;3.67;;;;;;;;;;5056007;28;20029;-61
2022/09/13 09:32:13;;;;;;;3.85;3.55;;;;;;;;;;5038057;28;20029;-61
2022/09/13 09:34:42;;;;;;;3.13;2.90;;;;;;;;;;5056261;28;20363;-61
2022/09/13 09:37:13;;;;;;;4.03;3.13;;;;;;;;;;5055957;28;20017;-61
2022/09/13 09:39:39;;;;;;;3.72;2.95;;;;;;;;;;5055645;28;20060;-61
2022/09/13 09:42:10;;;;;;;3.33;2.60;;;;;;;;;;5055840;28;20495;-61
2022/09/13 09:44:38;;;;;;;2.53;2.33;;;;;;;;;;5055519;28;20111;-61
2022/09/13 09:47:06;;;;;;;3.88;2.50;;;;;;;;;;5055470;28;20028;-61
2022/09/13 09:52:27;;;;;;;2.75;2.55;;;;;;;;;;5055916;28;20025;-61
2022/09/13 09:54:56;;;;;;;2.33;2.13;;;;;;;;;;5055591;28;20032;-61
2022/09/13 09:57:41;;;;;;;2.65;2.45;;;;;;;;;;5055586;28;20029;-61
2022/09/13 10:00:10;;;;;;;2.78;2.55;;;;;;;;;;5055136;28;20487;-61
2022/09/13 10:02:41;;;;;;;2.92;2.70;;;;;;;;;;5055428;28;20033;-61
2022/09/13 10:05:08;;;;;;;1.95;1.85;;;;;;;;;;5055152;28;20033;-61
2022/09/13 10:07:34;;;;;;;2.75;2.28;;;;;;;;;;5055644;28;20018;-61
2022/09/13 10:10:19;;;;;;;2.65;2.45;;;;;;;;;;5055262;28;20032;-61
2022/09/13 10:12:48;;;;;;;2.13;2.00;;;;;;;;;;5037119;28;20037;-61
2022/09/13 10:15:18;;;;;;;2.30;2.10;;;;;;;;;;5037110;28;20077;-61
2022/09/13 10:17:59;;;;;;;2.55;2.35;;;;;;;;;;5055196;28;20415;-61
2022/09/13 10:20:26;;;;;;;2.28;2.08;;;;;;;;;;5054857;28;20044;-61
2022/09/13 10:23:10;;;;;;;1.95;1.83;;;;;;;;;;5055100;28;20150;-61
2022/09/13 10:25:36;;;;;;;2.58;2.38;;;;;;;;;;5055024;28;20060;-61
2022/09/13 10:28:03;;;;;;;2.78;2.60;;;;;;;;;;5055191;28;20061;-61
2022/09/13 10:30:38;;;;;;;4.43;2.63;;;;;;;;;;5054642;28;20040;-61
2022/09/13 10:33:04;;;;;;;2.75;2.55;;;;;;;;;;5054654;28;20479;-64
2022/09/13 10:35:29;;;;;;;2.65;2.45;;;;;;;;;;5054571;28;20021;-64
2022/09/13 10:37:55;;;;;;;2.83;2.63;;;;;;;;;;5037030;28;20036;-64
2022/09/13 10:40:24;;;;;;;2.58;2.40;;;;;;;;;;5054462;28;20062;-64
2022/09/13 10:42:51;;;;;;;2.63;2.38;;;;;;;;;;5054710;28;20021;-64
2022/09/13 10:45:24;;;;;;;2.95;2.35;;;;;;;;;;5054375;28;20025;-64
2022/09/13 10:47:51;;;;;;;3.33;2.08;;;;;;;;;;5054541;28;20059;-64
2022/09/13 10:50:17;;;;;;;2.22;2.10;;;;;;;;;;5054572;28;20017;-64
2022/09/13 10:52:44;;;;;;;2.20;2.10;;;;;;;;;;5054801;28;20388;-64
2022/09/13 10:55:18;;;;;;;3.35;2.22;;;;;;;;;;5054203;28;20384;-64
2022/09/13 10:57:45;;;;;;;2.15;1.98;;;;;;;;;;5054423;28;20451;-64
2022/09/13 11:00:12;;;;;;;1.95;1.85;;;;;;;;;;5054175;28;20424;-64
2022/09/13 11:02:45;;;;;;;1.63;1.52;;;;;;;;;;5052660;28;20456;-64
2022/09/13 11:05:21;;;;;;;2.13;1.98;;;;;;;;;;5054263;28;20044;-64
2022/09/13 11:07:46;;;;;;;2.15;2.05;;;;;;;;;;5054161;28;20036;-64
2022/09/13 11:10:30;;;;;;;2.00;1.90;;;;;;;;;;5053961;28;20020;-65
2022/09/13 11:13:03;;;;;;;2.03;1.92;;;;;;;;;;5054282;28;20037;-65
2022/09/13 11:15:37;;;;;;;4.03;2.20;;;;;;;;;;5054092;28;20032;-64
2022/09/13 11:18:03;;;;;;;1.80;1.70;;;;;;;;;;5036329;28;20468;-64
2022/09/13 11:20:37;;;;;;;4.95;2.00;;;;;;;;;;5054077;28;20168;-64
2022/09/13 11:23:10;;;;;;;2.25;2.05;;;;;;;;;;5053756;28;20457;-65
2022/09/13 11:25:38;;;;;;;2.10;2.00;;;;;;;;;;5036490;28;20033;-65
2022/09/13 11:28:09;;;;;;;2.10;2.00;;;;;;;;;;5054148;28;20024;-65
2022/09/13 11:30:46;;;;;;;4.15;2.20;;;;;;;;;;5053915;28;20025;-65
2022/09/13 11:33:32;;;;;;;2.40;2.20;;;;;;;;;;5053882;28;20381;-65
2022/09/13 11:35:57;;;;;;;2.65;1.98;;;;;;;;;;5022870;28;20091;-65
2022/09/13 11:38:38;;;;;;;1.95;1.85;;;;;;;;;;5053832;28;20029;-65
2022/09/13 11:41:04;;;;;;;2.50;2.30;;;;;;;;;;5036331;28;20041;-65
2022/09/13 11:43:40;;;;;;;1.75;1.65;;;;;;;;;;5053760;28;20079;-65
2022/09/13 11:46:29;;;;;;;2.13;2.00;;;;;;;;;;5054025;28;20033;-65
2022/09/13 11:49:13;;;;;;;3.92;2.25;;;;;;;;;;5053589;28;20073;-65
2022/09/13 11:51:58;;;;;;;2.72;2.17;;;;;;;;;;5056566;28;20113;-66
2022/09/13 11:54:34;;;;;;;2.22;2.00;;;;;;;;;;5056236;28;20115;-66
2022/09/13 11:57:02;;;;;;;2.00;1.65;;;;;;;;;;5053888;28;20025;-66
2022/09/13 11:59:36;;;;;;;1.90;1.80;;;;;;;;;;5053351;28;20052;-64
2022/09/13 12:02:03;;;;;;;1.90;1.80;;;;;;;;;;5054120;28;20427;-66
2022/09/13 12:04:32;;;;;;;1.67;1.50;;;;;;;;;;5053315;28;20029;-66
2022/09/13 12:07:02;;;;;;;2.47;2.15;;;;;;;;;;5054058;28;20381;-65
2022/09/13 12:09:30;;;;;;;1.95;1.85;;;;;;;;;;5053202;28;20119;-65
2022/09/13 12:11:58;;;;;;;2.30;1.92;;;;;;;;;;5053224;28;20024;-65
2022/09/13 12:14:29;;;;;;;2.03;1.92;;;;;;;;;;5056634;28;20045;-65
2022/09/13 12:16:58;;;;;;;2.65;2.15;;;;;;;;;;5057198;28;20477;-65
2022/09/13 12:19:33;;;;;;;2.03;1.88;;;;;;;;;;5057735;28;20064;-65
2022/09/13 12:22:01;;;;;;;2.58;1.70;;;;;;;;;;5057346;28;20040;-65
2022/09/13 12:24:32;;;;;;;2.28;2.17;;;;;;;;;;5057334;28;20017;-65
2022/09/13 12:27:09;;;;;;;2.03;1.92;;;;;;;;;;5057267;28;20029;-65
2022/09/13 12:29:53;;;;;;;2.95;1.77;;;;;;;;;;5057199;28;20048;-65
2022/09/13 12:32:19;;;;;;;2.28;2.17;;;;;;;;;;5056931;28;20029;-65
2022/09/13 12:34:57;;;;;;;1.80;1.70;;;;;;;;;;5057166;28;20031;-65
2022/09/13 12:37:31;;;;;;;2.05;1.95;;;;;;;;;;5056709;28;20071;-65
2022/09/13 12:40:14;;;;;;;2.20;2.00;;;;;;;;;;5057110;28;20055;-65
2022/09/13 12:42:40;;;;;;;2.13;2.03;;;;;;;;;;5057188;28;20036;-66
2022/09/13 12:45:05;;;;;;;2.10;2.00;;;;;;;;;;5056989;28;20036;-66
2022/09/13 12:47:43;;;;;;;2.15;1.75;;;;;;;;;;5056960;28;20096;-66
2022/09/13 12:50:27;;;;;;;2.65;2.28;;;;;;;;;;5056919;28;20037;-66
2022/09/13 12:52:52;;;;;;;1.70;1.60;;;;;;;;;;5056951;28;20021;-66
2022/09/13 12:55:25;;;;;;;1.67;1.58;;;;;;;;;;5056924;28;20092;-66
2022/09/13 12:57:59;;;;;;;1.98;1.88;;;;;;;;;;5038789;28;20064;-66
2022/09/13 13:00:27;;;;;;;2.13;2.03;;;;;;;;;;5056838;28;20384;-66
2022/09/13 13:02:58;;;;;;;2.17;1.88;;;;;;;;;;5056275;28;20017;-66
2022/09/13 13:05:35;;;;;;;2.05;1.92;;;;;;;;;;5056233;28;20527;-66
2022/09/13 13:08:05;;;;;;;2.40;1.92;;;;;;;;;;5056212;28;20021;-66
2022/09/13 13:10:33;;;;;;;1.73;1.63;;;;;;;;;;5056167;28;20028;-66
2022/09/13 13:13:17;;;;;;;1.95;1.85;;;;;;;;;;5055935;28;20104;-65
2022/09/13 13:15:42;;;;;;;2.50;1.77;;;;;;;;;;5056415;28;20020;-66
2022/09/13 13:18:26;;;;;;;3.00;1.55;;;;;;;;;;5038551;28;20507;-66
2022/09/13 13:20:54;;;;;;;2.00;1.85;;;;;;;;;;5056004;28;20460;-65
2022/09/13 13:23:25;;;;;;;1.85;1.45;;;;;;;;;;5055829;28;20124;-68
2022/09/13 13:26:06;;;;;;;2.50;2.15;;;;;;;;;;5037727;28;20068;-66
2022/09/13 13:28:44;;;;;;;2.22;2.13;;;;;;;;;;5056062;28;20025;-66
2022/09/13 13:31:31;;;;;;;3.28;1.83;;;;;;;;;;5055697;28;20130;-66
2022/09/13 13:34:05;;;;;;;4.57;1.38;;;;;;;;;;5055741;28;20033;-67
2022/09/13 13:36:40;;;;;;;2.10;1.98;;;;;;;;;;5055958;28;20046;-67
2022/09/13 13:39:11;;;;;;;2.42;2.20;;;;;;;;;;5055585;28;20416;-67
2022/09/13 13:41:45;;;;;;;3.08;2.22;;;;;;;;;;5037763;28;20163;-66
2022/09/13 13:44:14;;;;;;;2.15;2.05;;;;;;;;;;5055693;28;20029;-66
2022/09/13 13:46:39;;;;;;;2.33;2.17;;;;;;;;;;5055719;28;20043;-66
2022/09/13 13:49:23;;;;;;;1.63;1.52;;;;;;;;;;5055393;28;20536;-66
2022/09/13 13:52:09;;;;;;;3.67;2.17;;;;;;;;;;5055188;28;20021;-66
2022/09/13 13:54:40;;;;;;;2.28;2.03;;;;;;;;;;5056067;28;20527;-65
2022/09/13 13:57:24;;;;;;;2.70;2.15;;;;;;;;;;5055459;28;20477;-65
2022/09/13 13:59:52;;;;;;;2.33;2.13;;;;;;;;;;5055585;28;20037;-65
2022/09/13 14:02:20;;;;;;;1.75;1.65;;;;;;;;;;5055199;28;20104;-65
2022/09/13 14:04:45;;;;;;;1.90;1.80;;;;;;;;;;5054265;28;20032;-65
2022/09/13 14:07:28;;;;;;;1.73;1.63;;;;;;;;;;5054602;28;20027;-65
2022/09/13 14:10:00;;;;;;;2.38;2.17;;;;;;;;;;5053804;28;20029;-65
2022/09/13 14:12:44;;;;;;;1.95;1.80;;;;;;;;;;5052994;28;20111;-65
2022/09/13 14:15:14;;;;;;;2.42;2.00;;;;;;;;;;5053783;28;20484;-65
2022/09/13 14:17:58;;;;;;;1.85;1.73;;;;;;;;;;5036088;28;20028;-65
2022/09/13 14:20:24;;;;;;;2.50;2.00;;;;;;;;;;5054193;28;20447;-65
2022/09/13 14:22:49;;;;;;;1.90;1.63;;;;;;;;;;5054349;28;20100;-64
2022/09/13 14:25:22;;;;;;;3.38;2.17;;;;;;;;;;5054750;28;20400;-64
2022/09/13 14:27:47;;;;;;;2.50;2.30;;;;;;;;;;5054750;28;20063;-64
2022/09/13 14:30:17;;;;;;;2.13;1.98;;;;;;;;;;5054023;28;20032;-64
2022/09/13 14:32:44;;;;;;;2.10;1.75;;;;;;;;;;5053396;28;20032;-64
2022/09/13 14:35:29;;;;;;;1.65;1.55;;;;;;;;;;5052590;28;20021;-66
2022/09/13 14:37:55;;;;;;;2.15;2.05;;;;;;;;;;5053629;28;20111;-65
2022/09/13 14:40:21;;;;;;;2.88;2.15;;;;;;;;;;5053790;28;20422;-65
2022/09/13 14:42:47;;;;;;;2.42;2.10;;;;;;;;;;5054005;28;20111;-65
2022/09/13 14:45:14;;;;;;;2.63;2.00;;;;;;;;;;5053277;28;20031;-65
2022/09/13 14:47:46;;;;;;;2.15;2.05;;;;;;;;;;5052248;28;20078;-65
2022/09/13 14:50:14;;;;;;;2.33;2.13;;;;;;;;;;5053406;28;20033;-65
2022/09/13 14:53:08;;;;;;;2.17;2.08;;;;;;;;;;5053577;28;20104;-65
2022/09/13 14:55:41;;;;;;;2.35;2.25;;;;;;;;;;5039689;28;20456;-65
2022/09/13 14:58:12;;;;;;;2.60;2.08;;;;;;;;;;5052768;28;20104;-65